createdAt,value
2017-08-14T00:01:25.355Z,86.12
2017-08-14T00:03:53.715Z,86.60
2017-08-14T00:06:22.076Z,86.45
2017-08-14T00:08:50.425Z,86.15
2017-08-14T00:11:19.529Z,85.85
2017-08-14T00:13:47.883Z,85.40
2017-08-14T00:16:16.238Z,85.92
2017-08-14T00:18:44.579Z,87.01
2017-08-14T00:21:12.917Z,86.73
2017-08-14T00:23:41.246Z,86.07
2017-08-14T00:26:09.834Z,86.23
2017-08-14T00:28:38.151Z,86.74
2017-08-14T00:31:06.466Z,87.40
2017-08-14T00:33:34.825Z,87.47
2017-08-14T00:36:03.921Z,86.42
2017-08-14T00:38:32.263Z,85.80
2017-08-14T00:41:00.582Z,85.33
2017-08-14T00:43:29.987Z,85.56
2017-08-14T00:45:58.313Z,85.94
2017-08-14T00:48:26.640Z,86.13
2017-08-14T00:50:55.768Z,85.73
2017-08-14T00:53:24.096Z,85.35
2017-08-14T00:55:52.471Z,85.43
2017-08-14T00:58:20.822Z,86.84
2017-08-14T01:00:49.581Z,86.44
2017-08-14T01:03:17.930Z,86.65
2017-08-14T01:05:46.282Z,86.65
2017-08-14T01:08:14.646Z,86.15
2017-08-14T01:10:42.997Z,86.03
2017-08-14T01:13:12.112Z,85.60
2017-08-14T01:15:40.448Z,86.22
2017-08-14T01:18:08.785Z,86.70
2017-08-14T01:20:37.145Z,87.25
2017-08-14T01:23:05.474Z,86.59
2017-08-14T01:25:33.831Z,86.30
2017-08-14T01:28:02.161Z,86.48
2017-08-14T01:30:30.504Z,86.50
2017-08-14T01:32:58.836Z,86.38
2017-08-14T01:35:27.170Z,87.32
2017-08-14T01:37:55.591Z,86.85
2017-08-14T01:40:23.926Z,87.44
2017-08-14T01:42:52.292Z,86.54
2017-08-14T01:45:20.623Z,86.10
2017-08-14T01:47:49.753Z,85.82
2017-08-14T01:50:18.073Z,86.25
2017-08-14T01:52:46.423Z,86.89
2017-08-14T01:55:14.772Z,86.18
2017-08-14T01:57:43.109Z,85.83
2017-08-14T02:00:12.783Z,85.78
2017-08-14T02:02:41.127Z,86.06
2017-08-14T02:05:10.254Z,87.29
2017-08-14T02:07:38.582Z,87.48
2017-08-14T02:10:06.925Z,87.73
2017-08-14T02:12:35.283Z,87.93
2017-08-14T02:15:03.614Z,87.39
2017-08-14T02:17:31.949Z,86.62
2017-08-14T02:20:00.280Z,86.55
2017-08-14T02:22:28.903Z,87.15
2017-08-14T02:24:57.223Z,87.57
2017-08-14T02:27:25.539Z,86.80
2017-08-14T02:29:54.648Z,86.41
2017-08-14T02:32:22.975Z,87.52
2017-08-14T02:34:51.335Z,88.18
2017-08-14T02:37:19.662Z,88.03
2017-08-14T02:39:48.773Z,86.71
2017-08-14T02:42:17.105Z,86.55
2017-08-14T02:44:45.460Z,86.43
2017-08-14T02:47:13.816Z,87.73
2017-08-14T02:49:42.909Z,87.78
2017-08-14T02:52:11.257Z,87.33
2017-08-14T02:54:39.942Z,87.16
2017-08-14T02:57:08.705Z,87.04
2017-08-14T02:59:37.047Z,87.92
2017-08-14T03:02:05.409Z,88.11
2017-08-14T03:04:33.760Z,87.79
2017-08-14T03:07:02.120Z,87.10
2017-08-14T03:09:30.499Z,87.17
2017-08-14T03:11:58.841Z,86.65
2017-08-14T03:14:28.251Z,87.30
2017-08-14T03:16:56.576Z,86.98
2017-08-14T03:19:24.910Z,86.50
2017-08-14T03:21:53.300Z,86.31
2017-08-14T03:24:21.633Z,86.07
2017-08-14T03:26:49.990Z,86.59
2017-08-14T03:29:18.325Z,86.22
2017-08-14T03:31:47.216Z,86.01
2017-08-14T03:34:15.543Z,85.90
2017-08-14T03:36:43.881Z,85.89
2017-08-14T03:39:12.226Z,85.70
2017-08-14T03:41:40.563Z,85.77
2017-08-14T03:44:08.899Z,85.75
2017-08-14T03:46:37.232Z,85.99
2017-08-14T03:49:05.574Z,85.60
2017-08-14T03:51:33.900Z,85.69
2017-08-14T03:54:02.243Z,85.86
2017-08-14T03:56:30.577Z,85.87
2017-08-14T03:58:59.619Z,85.70
2017-08-14T04:01:27.965Z,86.56
2017-08-14T04:03:56.285Z,86.29
2017-08-14T04:06:25.151Z,86.43
2017-08-14T04:08:53.486Z,86.40
2017-08-14T04:11:21.806Z,86.32
2017-08-14T04:13:50.925Z,86.38
2017-08-14T04:16:19.246Z,86.15
2017-08-14T04:18:47.628Z,86.26
2017-08-14T04:21:15.960Z,86.47
2017-08-14T04:23:44.564Z,86.86
2017-08-14T04:26:12.878Z,86.59
2017-08-14T04:28:41.214Z,86.39
2017-08-14T04:31:09.576Z,86.46
2017-08-14T04:33:37.912Z,86.19
2017-08-14T04:36:06.249Z,86.12
2017-08-14T04:38:34.573Z,86.27
2017-08-14T04:41:02.934Z,85.97
2017-08-14T04:43:31.260Z,86.62
2017-08-14T04:45:59.623Z,87.21
2017-08-14T04:48:27.959Z,86.74
2017-08-14T04:50:56.269Z,86.95
2017-08-14T04:53:24.630Z,86.48
2017-08-14T04:55:53.009Z,86.45
2017-08-14T04:58:21.735Z,86.42
2017-08-14T05:00:50.074Z,86.53
2017-08-14T05:03:18.414Z,86.54
2017-08-14T05:05:46.770Z,86.37
2017-08-14T05:08:15.868Z,86.37
2017-08-14T05:10:44.255Z,86.83
2017-08-14T05:13:12.604Z,86.69
2017-08-14T05:15:40.944Z,86.94
2017-08-14T05:18:09.289Z,86.71
2017-08-14T05:20:38.399Z,87.40
2017-08-14T05:23:06.737Z,87.54
2017-08-14T05:25:35.078Z,87.77
2017-08-14T05:28:03.475Z,87.15
2017-08-14T05:30:31.815Z,86.95
2017-08-14T05:33:00.935Z,86.79
2017-08-14T05:35:29.294Z,87.20
2017-08-14T05:37:57.611Z,87.24
2017-08-14T05:40:25.974Z,87.53
2017-08-14T05:42:54.294Z,87.78
2017-08-14T05:45:22.653Z,87.74
2017-08-14T05:47:50.996Z,87.94
2017-08-14T05:50:19.333Z,87.40
2017-08-14T05:52:47.683Z,87.76
2017-08-14T05:55:16.024Z,87.76
2017-08-14T05:57:44.373Z,88.08
2017-08-14T06:00:12.710Z,87.55
2017-08-14T06:02:41.061Z,88.18
2017-08-14T06:05:10.166Z,88.31
2017-08-14T06:07:38.516Z,88.07
2017-08-14T06:10:06.857Z,87.76
2017-08-14T06:12:36.097Z,87.77
2017-08-14T06:15:05.213Z,87.76
2017-08-14T06:17:33.541Z,87.85
2017-08-14T06:20:01.881Z,87.85
2017-08-14T06:22:30.215Z,87.65
2017-08-14T06:24:58.554Z,87.61
2017-08-14T06:27:26.897Z,87.67
2017-08-14T06:29:55.264Z,88.05
2017-08-14T06:32:23.621Z,88.10
2017-08-14T06:34:51.966Z,87.88
2017-08-14T06:37:20.564Z,87.58
2017-08-14T06:39:48.879Z,87.32
2017-08-14T06:42:17.212Z,87.25
2017-08-14T06:44:45.573Z,86.94
2017-08-14T06:47:13.909Z,86.74
2017-08-14T06:49:42.279Z,86.66
2017-08-14T06:52:10.614Z,86.59
2017-08-14T06:54:39.281Z,86.67
2017-08-14T06:57:07.602Z,86.60
2017-08-14T06:59:35.919Z,86.44
2017-08-14T07:02:04.262Z,86.40
2017-08-14T07:04:32.589Z,86.62
2017-08-14T07:07:00.933Z,86.52
2017-08-14T07:09:29.256Z,86.34
2017-08-14T07:11:57.955Z,86.60
2017-08-14T07:14:26.284Z,86.75
2017-08-14T07:16:54.623Z,86.89
2017-08-14T07:19:22.993Z,86.79
2017-08-14T07:21:52.001Z,86.93
2017-08-14T07:24:20.345Z,86.57
2017-08-14T07:26:48.690Z,87.06
2017-08-14T07:29:17.281Z,86.83
2017-08-14T07:31:45.622Z,86.85
2017-08-14T07:34:13.962Z,86.79
2017-08-14T07:36:42.305Z,86.54
2017-08-14T07:39:10.656Z,86.41
2017-08-14T07:41:39.006Z,86.26
2017-08-14T07:44:07.331Z,86.35
2017-08-14T07:46:35.694Z,85.97
2017-08-14T07:49:04.017Z,86.17
2017-08-14T07:51:32.380Z,86.19
2017-08-14T07:54:00.742Z,85.83
2017-08-14T07:56:29.076Z,85.63
2017-08-14T07:58:57.430Z,85.19
2017-08-14T08:01:25.777Z,84.77
2017-08-14T08:03:54.546Z,84.71
2017-08-14T08:06:22.867Z,84.62
2017-08-14T08:08:51.191Z,84.55
2017-08-14T08:11:20.293Z,84.41
2017-08-14T08:13:48.611Z,84.50
2017-08-14T08:16:16.962Z,84.63
2017-08-14T08:18:46.061Z,84.71
2017-08-14T08:21:14.754Z,84.75
2017-08-14T08:23:43.067Z,84.68
2017-08-14T08:26:11.387Z,83.91
2017-08-14T08:28:39.787Z,83.74
2017-08-14T08:31:08.870Z,83.28
2017-08-14T08:33:37.248Z,82.87
2017-08-14T08:36:05.586Z,81.88
2017-08-14T08:38:34.206Z,81.60
2017-08-14T08:41:02.538Z,80.90
2017-08-14T08:43:30.891Z,80.50
2017-08-14T08:45:59.260Z,80.01
2017-08-14T08:48:27.594Z,79.96
2017-08-14T08:50:55.958Z,79.91
2017-08-14T08:53:24.289Z,80.26
2017-08-14T08:55:52.655Z,79.23
2017-08-14T08:58:21.025Z,78.92
2017-08-14T09:00:49.502Z,79.26
2017-08-14T09:03:17.874Z,78.67
2017-08-14T09:05:46.204Z,78.34
2017-08-14T09:08:14.566Z,78.51
2017-08-14T09:10:42.899Z,79.28
2017-08-14T09:13:11.702Z,78.60
2017-08-14T09:15:40.061Z,78.46
2017-08-14T09:18:08.398Z,78.09
2017-08-14T09:20:36.757Z,77.63
2017-08-14T09:23:05.105Z,76.99
2017-08-14T09:25:33.460Z,76.56
2017-08-14T09:28:01.792Z,76.65
2017-08-14T09:30:30.387Z,76.83
2017-08-14T09:32:58.720Z,75.67
2017-08-14T09:35:27.032Z,75.13
2017-08-14T09:37:55.364Z,75.74
2017-08-14T09:40:23.685Z,75.91
2017-08-14T09:42:52.024Z,75.45
2017-08-14T09:45:20.349Z,75.47
2017-08-14T09:47:48.975Z,75.04
2017-08-14T09:50:17.692Z,74.89
2017-08-14T09:52:46.070Z,74.76
2017-08-14T09:55:14.423Z,74.44
2017-08-14T09:57:42.760Z,74.60
2017-08-14T10:00:11.148Z,75.43
2017-08-14T10:02:39.561Z,75.28
2017-08-14T10:05:07.923Z,75.07
2017-08-14T10:07:36.289Z,74.50
2017-08-14T10:10:04.652Z,75.26
2017-08-14T10:12:33.274Z,75.41
2017-08-14T10:15:02.851Z,74.93
2017-08-14T10:17:31.723Z,74.30
2017-08-14T10:20:00.769Z,73.47
2017-08-14T10:22:29.627Z,74.06
2017-08-14T10:24:58.568Z,73.42
2017-08-14T10:27:27.812Z,72.74
2017-08-14T10:29:56.851Z,73.08
2017-08-14T10:32:25.961Z,73.66
2017-08-14T10:34:54.271Z,73.82
2017-08-14T10:37:22.612Z,73.65
2017-08-14T10:39:51.762Z,73.19
2017-08-14T10:42:20.128Z,73.32
2017-08-14T10:44:48.463Z,72.16
2017-08-14T10:47:16.829Z,72.01
2017-08-14T10:49:45.175Z,72.43
2017-08-14T10:52:13.525Z,72.35
2017-08-14T10:54:41.880Z,73.90
2017-08-14T10:57:10.982Z,72.55
2017-08-14T10:59:39.326Z,72.06
2017-08-14T11:02:07.653Z,72.00
2017-08-14T11:04:36.030Z,71.21
2017-08-14T11:07:04.397Z,70.94
2017-08-14T11:09:34.392Z,70.94
2017-08-14T11:12:02.730Z,71.84
2017-08-14T11:14:31.081Z,70.57
2017-08-14T11:17:00.187Z,70.72
2017-08-14T11:19:28.522Z,70.11
2017-08-14T11:21:57.242Z,69.48
2017-08-14T11:24:25.568Z,69.83
2017-08-14T11:26:53.911Z,68.77
2017-08-14T11:29:22.244Z,68.35
2017-08-14T11:31:50.592Z,67.99
2017-08-14T11:34:18.939Z,68.39
2017-08-14T11:36:47.262Z,67.23
2017-08-14T11:39:15.639Z,68.57
2017-08-14T11:41:43.968Z,69.07
2017-08-14T11:44:12.323Z,67.15
2017-08-14T11:46:40.664Z,67.67
2017-08-14T11:49:09.013Z,67.34
2017-08-14T11:51:38.108Z,67.36
2017-08-14T11:54:06.483Z,66.87
2017-08-14T11:56:34.826Z,66.47
2017-08-14T11:59:03.154Z,68.35
2017-08-14T12:01:31.557Z,67.01
2017-08-14T12:03:59.888Z,67.66
2017-08-14T12:06:28.230Z,67.02
2017-08-14T12:08:56.564Z,67.63
2017-08-14T12:11:24.926Z,68.30
2017-08-14T12:13:53.259Z,68.31
2017-08-14T12:16:21.654Z,68.41
2017-08-14T12:18:50.020Z,68.62
2017-08-14T12:21:18.362Z,67.65
2017-08-14T12:23:46.718Z,67.89
2017-08-14T12:26:15.064Z,67.90
2017-08-14T12:28:43.804Z,68.43
2017-08-14T12:31:12.134Z,69.17
2017-08-14T12:33:40.510Z,68.66
2017-08-14T12:36:08.861Z,68.98
2017-08-14T12:38:37.202Z,65.80
2017-08-14T12:41:05.557Z,65.53
2017-08-14T12:43:33.899Z,66.18
2017-08-14T12:46:02.493Z,66.94
2017-08-14T12:48:30.843Z,66.94
2017-08-14T12:50:59.168Z,67.99
2017-08-14T12:53:27.536Z,67.48
2017-08-14T12:55:55.860Z,69.08
2017-08-14T12:58:24.311Z,67.07
2017-08-14T13:00:52.640Z,66.78
2017-08-14T13:03:22.063Z,68.71
2017-08-14T13:05:50.404Z,68.49
2017-08-14T13:08:18.713Z,68.74
2017-08-14T13:10:47.843Z,68.67
2017-08-14T13:13:16.179Z,67.95
2017-08-14T13:15:44.530Z,65.77
2017-08-14T13:18:12.850Z,65.04
2017-08-14T13:20:41.210Z,63.04
2017-08-14T13:23:09.547Z,63.67
2017-08-14T13:25:37.863Z,63.87
2017-08-14T13:28:06.220Z,62.57
2017-08-14T13:30:34.543Z,63.53
2017-08-14T13:33:03.136Z,64.53
2017-08-14T13:35:31.469Z,64.89
2017-08-14T13:37:59.792Z,66.12
2017-08-14T13:40:28.176Z,65.76
2017-08-14T13:42:56.526Z,65.43
2017-08-14T13:45:24.927Z,66.29
2017-08-14T13:47:53.245Z,65.98
2017-08-14T13:50:21.847Z,65.22
2017-08-14T13:52:50.194Z,66.09
2017-08-14T13:55:18.527Z,65.38
2017-08-14T13:57:47.683Z,62.25
2017-08-14T14:00:16.023Z,63.60
2017-08-14T14:02:44.379Z,63.49
2017-08-14T14:05:12.726Z,65.23
2017-08-14T14:07:41.076Z,63.31
2017-08-14T14:10:09.420Z,64.35
2017-08-14T14:12:37.759Z,65.57
2017-08-14T14:15:06.117Z,66.05
2017-08-14T14:17:34.458Z,65.92
2017-08-14T14:20:02.822Z,65.70
2017-08-14T14:22:31.153Z,64.92
2017-08-14T14:24:59.825Z,64.08
2017-08-14T14:27:28.179Z,64.59
2017-08-14T14:29:56.528Z,63.08
2017-08-14T14:32:24.886Z,62.34
2017-08-14T14:34:53.217Z,62.51
2017-08-14T14:37:21.963Z,63.31
2017-08-14T14:39:50.298Z,63.03
2017-08-14T14:42:19.730Z,63.39
2017-08-14T14:44:48.074Z,63.23
2017-08-14T14:47:16.403Z,59.71
2017-08-14T14:49:44.764Z,59.54
2017-08-14T14:52:13.112Z,58.57
2017-08-14T14:54:41.555Z,57.42
2017-08-14T14:57:09.890Z,58.86
2017-08-14T14:59:39.595Z,55.87
2017-08-14T15:02:08.329Z,54.98
2017-08-14T15:04:46.197Z,52.78
2017-08-14T15:07:25.944Z,52.17
2017-08-14T15:10:05.424Z,52.34
2017-08-14T15:12:47.171Z,50.94
2017-08-14T15:15:23.560Z,51.43
2017-08-14T15:17:52.204Z,50.54
2017-08-14T15:20:20.556Z,49.67
2017-08-14T15:22:48.893Z,49.30
2017-08-14T15:25:17.236Z,49.28
2017-08-14T15:27:45.548Z,48.70
2017-08-14T15:30:14.231Z,49.06
2017-08-14T15:32:42.572Z,47.57
2017-08-14T15:35:10.917Z,46.75
2017-08-14T15:37:39.273Z,48.52
2017-08-14T15:40:08.670Z,49.48
2017-08-14T15:42:37.011Z,49.66
2017-08-14T15:45:05.351Z,50.65
2017-08-14T15:47:33.713Z,52.74
2017-08-14T15:50:02.857Z,54.42
2017-08-14T15:52:31.241Z,55.66
2017-08-14T15:54:59.581Z,57.06
2017-08-14T15:57:27.930Z,57.34
2017-08-14T15:59:56.273Z,56.95
2017-08-14T16:02:24.613Z,57.39
2017-08-14T16:04:53.054Z,57.74
2017-08-14T16:07:21.399Z,59.43
2017-08-14T16:09:50.019Z,59.84
2017-08-14T16:12:18.743Z,60.47
2017-08-14T16:14:47.839Z,61.75
2017-08-14T16:17:16.194Z,62.64
2017-08-14T16:19:47.435Z,63.49
2017-08-14T16:22:15.806Z,64.65
2017-08-14T16:24:44.152Z,64.58
2017-08-14T16:27:12.520Z,64.79
2017-08-14T16:29:40.889Z,65.07
2017-08-14T16:32:09.237Z,64.77
2017-08-14T16:34:37.650Z,65.12
2017-08-14T16:37:05.997Z,65.07
2017-08-14T16:39:34.604Z,64.98
2017-08-14T16:42:03.688Z,64.79
2017-08-14T16:44:32.075Z,64.43
2017-08-14T16:47:00.426Z,64.36
2017-08-14T16:49:28.775Z,63.96
2017-08-14T16:51:57.125Z,63.55
2017-08-14T16:54:26.223Z,63.05
2017-08-14T16:56:54.900Z,63.27
2017-08-14T16:59:23.239Z,63.67
2017-08-14T17:01:51.583Z,63.86
2017-08-14T17:04:19.944Z,63.63
2017-08-14T17:06:49.027Z,63.60
2017-08-14T17:09:17.377Z,63.45
2017-08-14T17:11:45.711Z,64.49
2017-08-14T17:14:14.095Z,65.26
2017-08-14T17:16:42.477Z,65.42
2017-08-14T17:19:10.837Z,66.43
2017-08-14T17:21:39.950Z,67.36
2017-08-14T17:24:08.828Z,68.07
2017-08-14T17:26:38.603Z,68.48
2017-08-14T17:29:07.304Z,68.87
2017-08-14T17:31:37.475Z,69.17
2017-08-14T17:34:06.393Z,69.53
2017-08-14T17:36:39.249Z,69.42
2017-08-14T17:39:08.510Z,69.94
2017-08-14T17:41:37.994Z,70.43
2017-08-14T17:44:07.990Z,70.44
2017-08-14T17:46:36.876Z,70.53
2017-08-14T17:49:05.818Z,70.74
2017-08-14T17:51:35.562Z,71.21
2017-08-14T17:54:04.514Z,71.38
2017-08-14T17:56:33.435Z,71.44
2017-08-14T17:59:03.206Z,71.51
2017-08-14T18:01:32.583Z,71.89
2017-08-14T18:04:01.544Z,72.07
2017-08-14T18:06:30.456Z,71.83
2017-08-14T18:08:59.390Z,72.11
2017-08-14T18:11:28.353Z,72.33
2017-08-14T18:13:57.205Z,72.54
2017-08-14T18:16:26.122Z,72.65
2017-08-14T18:18:54.954Z,73.58
2017-08-14T18:21:23.705Z,73.82
2017-08-14T18:23:52.053Z,74.20
2017-08-14T18:26:20.424Z,74.60
2017-08-14T18:28:53.253Z,74.71
2017-08-14T18:31:21.657Z,74.41
2017-08-14T18:33:50.052Z,75.46
2017-08-14T18:36:18.396Z,76.03
2017-08-14T18:38:47.261Z,76.55
2017-08-14T18:41:15.749Z,76.52
2017-08-14T18:43:44.165Z,76.83
2017-08-14T18:46:12.508Z,76.55
2017-08-14T18:48:41.751Z,76.51
2017-08-14T18:51:10.902Z,76.32
2017-08-14T18:53:39.251Z,77.28
2017-08-14T18:56:07.606Z,76.82
2017-08-14T18:58:35.959Z,77.80
2017-08-14T19:01:04.321Z,78.54
2017-08-14T19:03:32.689Z,79.21
2017-08-14T19:06:01.046Z,79.25
2017-08-14T19:08:31.085Z,79.44
2017-08-14T19:10:57.841Z,79.90
2017-08-14T19:13:26.222Z,80.36
2017-08-14T19:15:54.572Z,79.60
2017-08-14T19:18:22.934Z,79.40
2017-08-14T19:20:51.279Z,80.04
2017-08-14T19:23:19.978Z,79.69
2017-08-14T19:25:48.326Z,80.61
2017-08-14T19:28:17.472Z,81.26
2017-08-14T19:30:45.849Z,80.38
2017-08-14T19:33:14.176Z,81.37
2017-08-14T19:35:42.577Z,81.01
2017-08-14T19:38:10.916Z,81.71
2017-08-14T19:40:40.175Z,82.03
2017-08-14T19:43:08.572Z,82.33
2017-08-14T19:45:36.928Z,82.74
2017-08-14T19:48:05.274Z,82.59
2017-08-14T19:50:33.614Z,82.95
2017-08-14T19:53:02.410Z,82.67
2017-08-14T19:55:30.746Z,83.37
2017-08-14T19:57:59.120Z,82.87
2017-08-14T20:00:27.570Z,82.73
2017-08-14T20:02:56.078Z,83.78
2017-08-14T20:05:24.441Z,83.24
2017-08-14T20:07:52.778Z,83.50
2017-08-14T20:10:21.770Z,84.31
2017-08-14T20:12:50.091Z,83.89
2017-08-14T20:15:18.458Z,83.48
2017-08-14T20:17:46.804Z,83.17
2017-08-14T20:20:15.154Z,83.97
2017-08-14T20:22:43.569Z,83.73
2017-08-14T20:25:11.952Z,83.87
2017-08-14T20:27:40.307Z,85.08
2017-08-14T20:30:08.659Z,84.92
2017-08-14T20:32:37.799Z,84.53
2017-08-14T20:35:06.181Z,85.11
2017-08-14T20:37:36.407Z,84.30
2017-08-14T20:40:05.651Z,84.93
2017-08-14T20:42:33.999Z,84.51
2017-08-14T20:45:02.343Z,83.78
2017-08-14T20:47:30.668Z,85.14
2017-08-14T20:49:59.023Z,84.50
2017-08-14T20:52:27.833Z,84.27
2017-08-14T20:54:56.162Z,84.98
2017-08-14T20:57:25.272Z,86.06
2017-08-14T20:59:53.631Z,85.97
2017-08-14T21:02:22.007Z,85.10
2017-08-14T21:04:50.364Z,85.13
2017-08-14T21:07:18.986Z,85.26
2017-08-14T21:09:47.345Z,85.49
2017-08-14T21:12:15.731Z,85.60
2017-08-14T21:14:44.841Z,84.83
2017-08-14T21:17:13.170Z,85.31
2017-08-14T21:19:41.517Z,86.31
2017-08-14T21:22:09.851Z,85.76
2017-08-14T21:24:38.677Z,84.97
2017-08-14T21:27:07.031Z,85.00
2017-08-14T21:29:35.368Z,85.91
2017-08-14T21:32:03.703Z,85.11
2017-08-14T21:34:32.784Z,84.97
2017-08-14T21:37:01.122Z,85.39
2017-08-14T21:39:29.449Z,85.67
2017-08-14T21:41:58.575Z,85.85
2017-08-14T21:44:26.910Z,85.96
2017-08-14T21:46:55.269Z,86.47
2017-08-14T21:49:23.956Z,85.83
2017-08-14T21:51:52.280Z,85.41
2017-08-14T21:54:22.257Z,86.89
2017-08-14T21:56:50.588Z,86.71
2017-08-14T21:59:19.359Z,86.66
2017-08-14T22:01:47.684Z,86.47
2017-08-14T22:04:16.046Z,86.38
2017-08-14T22:06:44.388Z,86.90
2017-08-14T22:09:12.720Z,86.36
2017-08-14T22:11:41.065Z,85.63
2017-08-14T22:14:09.852Z,86.15
2017-08-14T22:16:38.473Z,86.23
2017-08-14T22:19:06.822Z,86.50
2017-08-14T22:21:35.155Z,86.49
2017-08-14T22:24:03.544Z,85.76
2017-08-14T22:26:32.067Z,85.76
2017-08-14T22:29:00.456Z,86.07
2017-08-14T22:31:28.802Z,86.65
2017-08-14T22:33:57.918Z,87.01
2017-08-14T22:36:26.236Z,86.74
2017-08-14T22:38:54.587Z,85.95
2017-08-14T22:41:22.964Z,85.60
2017-08-14T22:43:51.335Z,85.86
2017-08-14T22:46:20.429Z,86.31
2017-08-14T22:48:48.763Z,85.94
2017-08-14T22:51:17.136Z,85.62
2017-08-14T22:53:45.490Z,86.36
2017-08-14T22:56:13.865Z,87.21
2017-08-14T22:58:42.217Z,86.79
2017-08-14T23:01:11.317Z,86.94
2017-08-14T23:03:39.684Z,86.67
2017-08-14T23:06:08.089Z,86.63
2017-08-14T23:08:36.437Z,87.20
2017-08-14T23:11:04.764Z,87.01
2017-08-14T23:13:33.111Z,87.29
2017-08-14T23:16:02.216Z,86.72
2017-08-14T23:18:30.544Z,86.15
2017-08-14T23:20:58.914Z,85.98
2017-08-14T23:23:27.259Z,86.03
2017-08-14T23:25:56.411Z,86.25
2017-08-14T23:28:24.736Z,86.29
2017-08-14T23:30:53.077Z,87.08
2017-08-14T23:33:21.425Z,86.39
2017-08-14T23:35:49.740Z,86.29
2017-08-14T23:38:18.474Z,86.65
2017-08-14T23:40:46.804Z,87.00
2017-08-14T23:43:15.939Z,87.14
2017-08-14T23:45:44.293Z,87.36
2017-08-14T23:48:12.622Z,87.79
2017-08-14T23:50:40.983Z,87.83
2017-08-14T23:53:09.311Z,87.15
2017-08-14T23:55:37.638Z,87.09
2017-08-14T23:58:05.960Z,86.79
